Terminal Aerodrome Forecast
Issued by NWS Billings, MT

Home | Current Version | Previous Version | Graphics & Text | Print | Product List | Glossary On
Versions: 1 2 3 4 5 6 7 8 9 10 11 12 13 14 15 16 17 18 19 20 21 22 23 24 25 26
000
FTUS45 KBYZ 281720
TAFMLS
TAF
KMLS 281720Z 2818/2918 02008KT P6SM VCSH SCT015 BKN025 OVC060
     FM290300 10005KT P6SM VCSH SCT008 BKN012 OVC020
     FM290600 10005KT P6SM BKN004 OVC008
     FM291400 12007KT P6SM SCT008 BKN015 BKN025=

USA.gov is the U.S. government's official web portal to all federal, state and local government web resources and services.